Pagina principală
METAR-TAF:

METAR-TAF

Aeroporturi :

Melbourne, Australia

Latitudine: 37-40-24S, longitudine: 144-50-36E, elevație: 132 m

Observații meteo curente

Raportul a fost făcut în urmă cu 37 de minute, la 10:30 UTC
Vânt 15 kt de la Nord
Temperatură 11°C
Umiditate 71%
Presiune 1026 hPa
Vizibilitate de 10 km sau mai mult
nu există nori sub 1.500 m și nici cumulonimbus

METAR: YMML 281030Z 01015KT CAVOK 11/06 Q1026

Ora: 21:07 (11:07 UTC)

Prognoză

Raportul a fost făcut în urmă cu 2 ore și 47 de minute, la 08:20 UTC
Prognoză valabilă de la 28 ora 09 UTC la 29 ora 12 UTC
Vânt 12 kt de la Nord
Vizibilitate de 10 km sau mai mult
nu există nori sub 1.500 m și nici cumulonimbus
De la 28 ora 2200 UTC
Vânt 20 kt de la Nord cu rafale de până la 30 kt
Vizibilitate de 10 km sau mai mult
nu există nori sub 1.500 m și nici cumulonimbus

TAF: YMML 280820Z 2809/2912 01012KT CAVOK FM282200 01020G30KT CAVOK

Observații și prognoze meteo pentru peste 4.000 de aeroporturi (rapoarte METAR și TAF).

Stațiile disponibile sunt reprezentate pe hartă prin puncte galbene și roșii.

Țineți indicatorul mouse-ului pe punctul dorit pentru a vedea denumirea stației.

Apoi, faceți clic pentru a vedea observațiile și prognozele meteorologice.

Pentru a schimba harta: Pentru mărire, faceți clic pe butoanele verzi cu cruce neagră; pentru micșorare, pe butonul verde cu o liniuță; pentru hărți învecinate, pe săgețile verzi.


METAR-TAF: